createdAt,value
2017-04-12T00:01:02.713Z,23.3
2017-04-12T00:02:10.803Z,23.3
2017-04-12T00:03:18.892Z,23.3
2017-04-12T00:04:26.981Z,23.2
2017-04-12T00:05:35.085Z,23.2
2017-04-12T00:06:43.166Z,23.3
2017-04-12T00:07:51.258Z,23.3
2017-04-12T00:08:59.346Z,23.3
2017-04-12T00:10:07.432Z,23.3
2017-04-12T00:11:15.519Z,23.3
2017-04-12T00:12:23.605Z,23.3
2017-04-12T00:13:31.703Z,23.3
2017-04-12T00:14:39.780Z,23.3
2017-04-12T00:15:47.871Z,23.3
2017-04-12T00:16:55.964Z,23.2
2017-04-12T00:18:04.055Z,23.3
2017-04-12T00:19:12.135Z,23.3
2017-04-12T00:20:20.225Z,23.3
2017-04-12T00:21:28.316Z,23.3
2017-04-12T00:22:36.485Z,23.3
2017-04-12T00:23:44.499Z,23.3
2017-04-12T00:24:52.592Z,23.3
2017-04-12T00:26:00.685Z,23.3
2017-04-12T00:27:08.774Z,23.3
2017-04-12T00:28:16.861Z,23.3
2017-04-12T00:29:24.953Z,23.3
2017-04-12T00:30:33.041Z,23.3
2017-04-12T00:31:41.123Z,23.3
2017-04-12T00:32:49.218Z,23.2
2017-04-12T00:33:57.310Z,23.3
2017-04-12T00:35:05.398Z,23.2
2017-04-12T00:36:13.480Z,23.3
2017-04-12T00:37:21.571Z,23.2
2017-04-12T00:38:29.653Z,23.3
2017-04-12T00:39:37.744Z,23.2
2017-04-12T00:40:45.832Z,23.1
2017-04-12T00:41:53.920Z,23.3
2017-04-12T00:43:02.005Z,23.2
2017-04-12T00:44:10.090Z,23.2
2017-04-12T00:45:18.184Z,23.2
2017-04-12T00:46:26.279Z,23.1
2017-04-12T00:47:34.363Z,23.2
2017-04-12T00:48:42.452Z,23.1
2017-04-12T00:49:50.559Z,23.1
2017-04-12T00:50:58.627Z,23.2
2017-04-12T00:52:06.715Z,23.1
2017-04-12T00:53:14.807Z,23.1
2017-04-12T00:54:22.895Z,23.2
2017-04-12T00:55:30.985Z,23.2
2017-04-12T00:56:39.085Z,23.2
2017-04-12T00:57:47.174Z,23.2
2017-04-12T00:58:55.267Z,23.2
2017-04-12T01:00:03.342Z,23.2
2017-04-12T01:01:11.433Z,23.1
2017-04-12T01:02:19.524Z,23.2
2017-04-12T01:03:27.609Z,23.2
2017-04-12T01:04:35.709Z,23.2
2017-04-12T01:05:43.804Z,23.1
2017-04-12T01:06:51.888Z,23.1
2017-04-12T01:07:59.976Z,23.1
2017-04-12T01:09:08.094Z,23.1
2017-04-12T01:10:16.159Z,23.1
2017-04-12T01:11:24.244Z,23.1
2017-04-12T01:12:32.334Z,23.1
2017-04-12T01:13:40.426Z,23.0
2017-04-12T01:14:48.504Z,23.1
2017-04-12T01:15:56.595Z,23.1
2017-04-12T01:17:04.684Z,23.1
2017-04-12T01:18:12.770Z,23.0
2017-04-12T01:19:20.855Z,23.0
2017-04-12T01:20:28.945Z,22.9
2017-04-12T01:21:37.034Z,23.0
2017-04-12T01:22:45.130Z,22.9
2017-04-12T01:23:53.214Z,22.9
2017-04-12T01:25:01.422Z,23.0
2017-04-12T01:26:09.391Z,23.0
2017-04-12T01:27:17.474Z,23.0
2017-04-12T01:28:25.564Z,23.0
2017-04-12T01:29:33.651Z,22.9
2017-04-12T01:30:41.736Z,23.0
2017-04-12T01:31:49.826Z,23.0
2017-04-12T01:32:57.912Z,22.9
2017-04-12T01:34:05.999Z,22.9
2017-04-12T01:35:14.082Z,22.9
2017-04-12T01:36:22.174Z,23.0
2017-04-12T01:37:30.260Z,22.8
2017-04-12T01:38:38.341Z,22.8
2017-04-12T01:39:46.435Z,22.9
2017-04-12T01:40:54.520Z,22.9
2017-04-12T01:42:02.640Z,22.9
2017-04-12T01:43:10.691Z,22.9
2017-04-12T01:44:18.785Z,22.8
2017-04-12T01:45:26.872Z,22.8
2017-04-12T01:46:34.964Z,22.8
2017-04-12T01:47:43.047Z,22.8
2017-04-12T01:48:51.137Z,22.8
2017-04-12T01:49:59.229Z,22.8
2017-04-12T01:51:07.316Z,22.8
2017-04-12T01:52:15.409Z,22.8
2017-04-12T01:53:23.494Z,22.8
2017-04-12T01:54:31.590Z,22.7
2017-04-12T01:55:39.682Z,22.7
2017-04-12T01:56:47.779Z,22.8
2017-04-12T01:57:55.864Z,22.7
2017-04-12T01:59:03.950Z,22.8
2017-04-12T02:00:12.051Z,22.8
2017-04-12T02:01:20.124Z,22.6
2017-04-12T02:02:28.211Z,22.6
2017-04-12T02:03:36.305Z,22.6
2017-04-12T02:04:44.395Z,22.7
2017-04-12T02:05:52.475Z,22.6
2017-04-12T02:07:00.608Z,22.7
2017-04-12T02:08:08.662Z,22.6
2017-04-12T02:09:16.752Z,22.6
2017-04-12T02:10:24.840Z,22.6
2017-04-12T02:11:32.924Z,22.6
2017-04-12T02:12:41.025Z,22.7
2017-04-12T02:13:49.109Z,22.6
2017-04-12T02:14:57.193Z,22.6
2017-04-12T02:16:05.291Z,22.6
2017-04-12T02:17:13.373Z,22.6
2017-04-12T02:18:21.463Z,22.5
2017-04-12T02:19:29.550Z,22.5
2017-04-12T02:20:37.642Z,22.5
2017-04-12T02:21:45.732Z,22.5
2017-04-12T02:22:53.819Z,22.5
2017-04-12T02:24:01.905Z,22.5
2017-04-12T02:25:09.991Z,22.5
2017-04-12T02:26:18.076Z,22.6
2017-04-12T02:27:26.166Z,22.5
2017-04-12T02:28:34.256Z,22.4
2017-04-12T02:29:42.340Z,22.5
2017-04-12T02:30:50.429Z,22.5
2017-04-12T02:31:58.518Z,22.5
2017-04-12T02:33:06.603Z,22.4
2017-04-12T02:34:14.685Z,22.4
2017-04-12T02:35:22.778Z,22.4
2017-04-12T02:36:30.863Z,22.4
2017-04-12T02:37:38.946Z,22.3
2017-04-12T02:38:47.037Z,22.4
2017-04-12T02:39:55.125Z,22.3
2017-04-12T02:41:03.208Z,22.3
2017-04-12T02:42:11.299Z,22.3
2017-04-12T02:43:19.395Z,22.3
2017-04-12T02:44:27.477Z,22.3
2017-04-12T02:45:35.563Z,22.3
2017-04-12T02:46:43.653Z,22.2
2017-04-12T02:47:51.739Z,22.3
2017-04-12T02:48:59.827Z,22.3
2017-04-12T02:50:07.909Z,22.3
2017-04-12T02:51:16.041Z,22.2
2017-04-12T02:52:24.088Z,22.2
2017-04-12T02:53:32.176Z,22.2
2017-04-12T02:54:40.263Z,22.3
2017-04-12T02:55:48.352Z,22.1
2017-04-12T02:56:56.438Z,22.2
2017-04-12T02:58:04.520Z,22.2
2017-04-12T02:59:12.612Z,22.1
2017-04-12T03:00:20.697Z,22.1
2017-04-12T03:01:28.781Z,22.1
2017-04-12T03:02:36.875Z,22.1
2017-04-12T03:03:44.963Z,22.1
2017-04-12T03:04:53.045Z,22.1
2017-04-12T03:06:01.136Z,22.0
2017-04-12T03:07:09.236Z,22.1
2017-04-12T03:08:17.313Z,22.0
2017-04-12T03:09:25.402Z,22.0
2017-04-12T03:10:33.488Z,22.0
2017-04-12T03:11:41.574Z,22.0
2017-04-12T03:12:49.655Z,22.0
2017-04-12T03:13:57.741Z,21.9
2017-04-12T03:15:05.831Z,21.9
2017-04-12T03:16:13.920Z,21.9
2017-04-12T03:17:22.010Z,21.9
2017-04-12T03:18:30.097Z,21.9
2017-04-12T03:19:38.184Z,21.9
2017-04-12T03:20:46.273Z,21.9
2017-04-12T03:21:54.354Z,21.8
2017-04-12T03:23:02.443Z,21.9
2017-04-12T03:24:10.533Z,21.8
2017-04-12T03:25:18.622Z,21.9
2017-04-12T03:26:26.709Z,21.8
2017-04-12T03:27:34.798Z,21.8
2017-04-12T03:28:42.881Z,21.8
2017-04-12T03:29:50.967Z,21.8
2017-04-12T03:30:59.054Z,21.8
2017-04-12T03:32:07.139Z,21.8
2017-04-12T03:33:15.221Z,21.8
2017-04-12T03:34:23.309Z,21.8
2017-04-12T03:35:31.396Z,21.7
2017-04-12T03:36:39.483Z,21.7
2017-04-12T03:37:47.571Z,21.7
2017-04-12T03:38:55.657Z,21.7
2017-04-12T03:40:03.742Z,21.7
2017-04-12T03:41:11.828Z,21.7
2017-04-12T03:42:19.914Z,21.7
2017-04-12T03:43:28.001Z,21.6
2017-04-12T03:44:36.083Z,21.6
2017-04-12T03:45:44.180Z,21.6
2017-04-12T03:46:52.267Z,21.6
2017-04-12T03:48:00.352Z,21.6
2017-04-12T03:49:08.439Z,21.6
2017-04-12T03:50:16.524Z,21.7
2017-04-12T03:51:24.619Z,21.8
2017-04-12T03:52:32.694Z,21.6
2017-04-12T03:53:40.783Z,21.7
2017-04-12T03:54:48.938Z,21.6
2017-04-12T03:55:56.954Z,21.7
2017-04-12T03:57:05.037Z,21.6
2017-04-12T03:58:13.126Z,21.6
2017-04-12T03:59:21.216Z,21.6
2017-04-12T04:00:29.297Z,21.5
2017-04-12T04:01:37.393Z,21.5
2017-04-12T04:02:45.484Z,21.6
2017-04-12T04:03:53.568Z,21.6
2017-04-12T04:05:01.654Z,21.6
2017-04-12T04:06:09.744Z,21.5
2017-04-12T04:07:17.832Z,21.4
2017-04-12T04:08:25.915Z,21.5
2017-04-12T04:09:34.004Z,21.5
2017-04-12T04:10:42.090Z,21.4
2017-04-12T04:11:50.181Z,21.4
2017-04-12T04:12:58.262Z,21.4
2017-04-12T04:14:06.355Z,21.4
2017-04-12T04:15:14.432Z,21.4
2017-04-12T04:16:22.517Z,21.3
2017-04-12T04:17:30.605Z,21.3
2017-04-12T04:18:38.694Z,21.4
2017-04-12T04:19:46.784Z,21.3
2017-04-12T04:20:54.861Z,21.3
2017-04-12T04:22:02.953Z,21.2
2017-04-12T04:23:11.036Z,21.3
2017-04-12T04:24:19.119Z,21.2
2017-04-12T04:25:27.208Z,21.3
2017-04-12T04:26:35.298Z,21.2
2017-04-12T04:27:43.382Z,21.3
2017-04-12T04:28:51.469Z,21.2
2017-04-12T04:29:59.559Z,21.2
2017-04-12T04:31:07.642Z,21.2
2017-04-12T04:32:15.725Z,21.1
2017-04-12T04:33:23.822Z,21.1
2017-04-12T04:34:31.914Z,21.2
2017-04-12T04:35:39.994Z,21.1
2017-04-12T04:36:48.091Z,21.1
2017-04-12T04:37:56.183Z,21.0
2017-04-12T04:39:04.265Z,21.1
2017-04-12T04:40:12.353Z,21.1
2017-04-12T04:41:20.440Z,21.1
2017-04-12T04:42:28.531Z,21.1
2017-04-12T04:43:36.614Z,21.1
2017-04-12T04:44:44.702Z,21.0
2017-04-12T04:45:52.792Z,21.1
2017-04-12T04:47:00.877Z,21.0
2017-04-12T04:48:08.960Z,21.1
2017-04-12T04:49:17.049Z,21.1
2017-04-12T04:50:25.145Z,21.1
2017-04-12T04:51:33.403Z,20.9
2017-04-12T04:52:41.313Z,20.9
2017-04-12T04:53:49.394Z,20.9
2017-04-12T04:54:57.483Z,20.9
2017-04-12T04:56:05.563Z,21.0
2017-04-12T04:57:13.836Z,20.9
2017-04-12T04:58:21.742Z,20.9
2017-04-12T04:59:29.860Z,20.9
2017-04-12T05:00:37.914Z,20.9
2017-04-12T05:01:46.002Z,20.9
2017-04-12T05:02:54.087Z,20.9
2017-04-12T05:04:02.171Z,20.9
2017-04-12T05:05:10.262Z,20.9
2017-04-12T05:06:18.346Z,20.9
2017-04-12T05:07:27.319Z,20.8
2017-04-12T05:08:34.517Z,20.8
2017-04-12T05:09:42.602Z,20.9
2017-04-12T05:10:50.689Z,20.8
2017-04-12T05:11:58.778Z,20.9
2017-04-12T05:13:07.420Z,20.9
2017-04-12T05:14:14.947Z,20.7
2017-04-12T05:15:23.021Z,20.8
2017-04-12T05:16:31.115Z,20.8
2017-04-12T05:17:39.195Z,20.7
2017-04-12T05:18:47.291Z,20.7
2017-04-12T05:19:55.406Z,20.8
2017-04-12T05:21:03.601Z,20.7
2017-04-12T05:22:12.061Z,20.7
2017-04-12T05:23:19.634Z,20.7
2017-04-12T05:24:27.726Z,20.7
2017-04-12T05:25:35.824Z,20.7
2017-04-12T05:26:43.911Z,20.6
2017-04-12T05:27:51.988Z,20.7
2017-04-12T05:29:00.070Z,20.6
2017-04-12T05:30:08.155Z,20.6
2017-04-12T05:31:16.235Z,20.6
2017-04-12T05:32:24.326Z,20.6
2017-04-12T05:33:32.408Z,20.5
2017-04-12T05:34:40.492Z,20.5
2017-04-12T05:35:48.574Z,20.6
2017-04-12T05:36:56.719Z,20.6
2017-04-12T05:38:04.751Z,20.5
2017-04-12T05:39:12.842Z,20.5
2017-04-12T05:40:20.930Z,20.5
2017-04-12T05:41:29.022Z,20.6
2017-04-12T05:42:37.104Z,20.6
2017-04-12T05:43:45.192Z,20.5
2017-04-12T05:44:53.286Z,20.5
2017-04-12T05:46:01.369Z,20.5
2017-04-12T05:47:09.868Z,20.5
2017-04-12T05:48:17.698Z,20.5
2017-04-12T05:49:25.634Z,20.4
2017-04-12T05:50:33.715Z,20.5
2017-04-12T05:51:41.972Z,20.5
2017-04-12T05:52:49.897Z,20.5
2017-04-12T05:53:57.985Z,20.5
2017-04-12T05:55:06.076Z,20.3
2017-04-12T05:56:14.197Z,20.4
2017-04-12T05:57:22.813Z,20.5
2017-04-12T05:58:30.328Z,20.5
2017-04-12T05:59:38.412Z,20.5
2017-04-12T06:00:46.502Z,20.5
2017-04-12T06:01:54.583Z,20.5
2017-04-12T06:03:02.667Z,20.5
2017-04-12T06:04:10.761Z,20.5
2017-04-12T06:05:18.846Z,20.4
2017-04-12T06:06:26.928Z,20.3
2017-04-12T06:07:35.012Z,20.4
2017-04-12T06:08:43.104Z,20.4
2017-04-12T06:09:51.189Z,20.3
2017-04-12T06:10:59.271Z,20.3
2017-04-12T06:12:07.363Z,20.3
2017-04-12T06:13:15.447Z,20.3
2017-04-12T06:14:23.525Z,20.3
2017-04-12T06:15:31.616Z,20.3
2017-04-12T06:16:39.705Z,20.4
2017-04-12T06:17:47.789Z,20.4
2017-04-12T06:18:55.873Z,20.3
2017-04-12T06:20:03.958Z,20.3
2017-04-12T06:21:12.046Z,20.4
2017-04-12T06:22:20.132Z,20.3
2017-04-12T06:23:28.216Z,20.3
2017-04-12T06:24:36.306Z,20.3
2017-04-12T06:25:44.384Z,20.3
2017-04-12T06:26:52.468Z,20.2
2017-04-12T06:28:00.562Z,20.3
2017-04-12T06:29:08.646Z,20.3
2017-04-12T06:30:16.848Z,20.2
2017-04-12T06:31:24.816Z,20.3
2017-04-12T06:32:32.900Z,20.3
2017-04-12T06:33:40.988Z,20.2
2017-04-12T06:34:49.070Z,20.3
2017-04-12T06:35:57.154Z,20.3
2017-04-12T06:37:05.240Z,20.3
2017-04-12T06:38:13.335Z,20.2
2017-04-12T06:39:21.417Z,20.2
2017-04-12T06:40:29.560Z,20.2
2017-04-12T06:41:37.586Z,20.2
2017-04-12T06:42:45.671Z,20.3
2017-04-12T06:43:53.766Z,20.3
2017-04-12T06:45:01.855Z,20.2
2017-04-12T06:46:09.940Z,20.2
2017-04-12T06:47:18.033Z,20.1
2017-04-12T06:48:26.118Z,20.2
2017-04-12T06:49:34.198Z,20.3
2017-04-12T06:50:42.285Z,20.2
2017-04-12T06:51:50.374Z,20.2
2017-04-12T06:52:58.462Z,20.2
2017-04-12T06:54:06.555Z,20.1
2017-04-12T06:55:14.637Z,20.1
2017-04-12T06:56:22.723Z,20.1
2017-04-12T06:57:30.806Z,20.1
2017-04-12T06:58:38.890Z,20.1
2017-04-12T06:59:46.977Z,20.1
2017-04-12T07:00:55.231Z,20.1
2017-04-12T07:02:03.150Z,20.2
2017-04-12T07:03:11.246Z,20.1
2017-04-12T07:04:19.331Z,20.1
2017-04-12T07:05:27.416Z,20.1
2017-04-12T07:06:35.507Z,20.1
2017-04-12T07:07:43.592Z,20.1
2017-04-12T07:08:51.677Z,20.1
2017-04-12T07:09:59.768Z,20.1
2017-04-12T07:11:07.850Z,20.0
2017-04-12T07:12:15.936Z,20.1
2017-04-12T07:13:24.020Z,20.1
2017-04-12T07:14:32.103Z,20.1
2017-04-12T07:15:40.195Z,20.1
2017-04-12T07:16:48.274Z,20.1
2017-04-12T07:17:56.359Z,20.0
2017-04-12T07:19:04.455Z,20.1
2017-04-12T07:20:12.539Z,20.0
2017-04-12T07:21:20.622Z,20.1
2017-04-12T07:22:28.717Z,20.1
2017-04-12T07:23:36.798Z,20.0
2017-04-12T07:24:44.881Z,20.0
2017-04-12T07:25:52.963Z,20.0
2017-04-12T07:27:01.051Z,20.0
2017-04-12T07:28:09.132Z,20.0
2017-04-12T07:29:17.217Z,20.0
2017-04-12T07:30:25.304Z,20.0
2017-04-12T07:31:33.395Z,20.0
2017-04-12T07:32:41.489Z,20.0
2017-04-12T07:33:49.569Z,20.0
2017-04-12T07:34:57.659Z,20.0
2017-04-12T07:36:05.752Z,20.0
2017-04-12T07:37:13.834Z,20.0
2017-04-12T07:38:21.923Z,20.0
2017-04-12T07:39:30.013Z,20.0
2017-04-12T07:40:38.092Z,19.9
2017-04-12T07:41:46.178Z,20.0
2017-04-12T07:42:54.265Z,20.0
2017-04-12T07:44:02.364Z,20.0
2017-04-12T07:45:10.433Z,20.0
2017-04-12T07:46:18.522Z,20.0
2017-04-12T07:47:26.606Z,20.0
2017-04-12T07:48:34.690Z,19.9
2017-04-12T07:49:42.800Z,20.0
2017-04-12T07:50:50.863Z,20.0
2017-04-12T07:51:58.943Z,20.0
2017-04-12T07:53:07.027Z,20.0
2017-04-12T07:54:15.115Z,20.0
2017-04-12T07:55:23.244Z,19.9
2017-04-12T07:56:31.289Z,20.0
2017-04-12T07:57:39.377Z,20.0
2017-04-12T07:58:47.457Z,20.0
2017-04-12T07:59:55.556Z,20.0
2017-04-12T08:01:03.628Z,20.0
2017-04-12T08:02:11.716Z,20.0
2017-04-12T08:03:19.797Z,20.0
2017-04-12T08:04:27.882Z,20.0
2017-04-12T08:05:35.976Z,20.1
2017-04-12T08:06:44.063Z,20.0
2017-04-12T08:07:52.149Z,20.0
2017-04-12T08:09:00.227Z,20.0
2017-04-12T08:10:08.313Z,20.0
2017-04-12T08:11:16.401Z,20.0
2017-04-12T08:12:24.484Z,20.0
2017-04-12T08:13:32.573Z,20.0
2017-04-12T08:14:40.668Z,20.0
2017-04-12T08:15:48.750Z,20.1
2017-04-12T08:16:56.832Z,20.0
2017-04-12T08:18:04.923Z,20.0
2017-04-12T08:19:13.006Z,19.9
2017-04-12T08:20:21.086Z,20.0
2017-04-12T08:21:29.173Z,20.0
2017-04-12T08:22:37.266Z,20.0
2017-04-12T08:23:45.354Z,20.0
2017-04-12T08:24:53.429Z,20.0
2017-04-12T08:26:01.519Z,20.0
2017-04-12T08:27:09.612Z,19.9
2017-04-12T08:28:17.701Z,19.9
2017-04-12T08:29:25.796Z,20.0
2017-04-12T08:30:33.879Z,19.9
2017-04-12T08:31:41.973Z,19.9
2017-04-12T08:32:50.052Z,19.9
2017-04-12T08:33:58.155Z,19.9
2017-04-12T08:35:06.233Z,20.0
2017-04-12T08:36:14.314Z,19.9
2017-04-12T08:37:22.403Z,19.8
2017-04-12T08:38:30.488Z,19.9
2017-04-12T08:39:38.571Z,19.9
2017-04-12T08:40:46.652Z,19.8
2017-04-12T08:41:54.746Z,19.9
2017-04-12T08:43:02.831Z,19.9
2017-04-12T08:44:10.912Z,19.9
2017-04-12T08:45:18.999Z,19.8
2017-04-12T08:46:27.091Z,19.8
2017-04-12T08:47:35.172Z,19.8
2017-04-12T08:48:43.254Z,19.7
2017-04-12T08:49:51.344Z,19.7
2017-04-12T08:50:59.431Z,19.9
2017-04-12T08:52:07.518Z,19.7
2017-04-12T08:53:15.709Z,19.8
2017-04-12T08:54:23.775Z,19.7
2017-04-12T08:55:31.844Z,19.8
2017-04-12T08:56:39.872Z,19.7
2017-04-12T08:57:48.005Z,19.8
2017-04-12T08:58:56.116Z,19.7
2017-04-12T09:00:04.197Z,19.8
2017-04-12T09:01:12.215Z,19.7
2017-04-12T09:02:20.343Z,19.7
2017-04-12T09:03:28.448Z,19.7
2017-04-12T09:04:36.542Z,19.7
2017-04-12T09:05:44.564Z,19.7
2017-04-12T09:06:52.663Z,19.7
2017-04-12T09:08:00.728Z,19.6
2017-04-12T09:09:08.820Z,19.8
2017-04-12T09:10:16.903Z,19.6
2017-04-12T09:11:24.987Z,19.7
2017-04-12T09:12:33.073Z,19.7
2017-04-12T09:13:41.160Z,19.7
2017-04-12T09:14:49.241Z,19.7
2017-04-12T09:15:57.322Z,19.7
2017-04-12T09:17:05.411Z,19.7
2017-04-12T09:18:13.797Z,19.7
2017-04-12T09:19:21.975Z,19.7
2017-04-12T09:20:29.672Z,19.7
2017-04-12T09:21:37.764Z,19.7
2017-04-12T09:22:46.000Z,19.7
2017-04-12T09:23:53.943Z,19.7
2017-04-12T09:25:02.014Z,19.7
2017-04-12T09:26:10.726Z,19.7
2017-04-12T09:27:18.833Z,19.6
2017-04-12T09:28:26.486Z,19.7
2017-04-12T09:29:34.461Z,19.7
2017-04-12T09:30:42.448Z,19.7
2017-04-12T09:31:50.674Z,19.6
2017-04-12T09:32:58.806Z,19.7
2017-04-12T09:34:06.701Z,19.7
2017-04-12T09:35:14.783Z,19.7
2017-04-12T09:36:22.876Z,19.7
2017-04-12T09:37:31.598Z,19.6
2017-04-12T09:38:39.223Z,19.7
2017-04-12T09:39:47.130Z,19.7
2017-04-12T09:40:55.223Z,19.7
2017-04-12T09:42:03.960Z,19.6
2017-04-12T09:43:11.961Z,19.6
2017-04-12T09:44:19.610Z,19.6
2017-04-12T09:45:27.570Z,19.7
2017-04-12T09:46:35.666Z,19.6
2017-04-12T09:47:43.745Z,19.7
2017-04-12T09:48:51.832Z,19.6
2017-04-12T09:49:59.917Z,19.8
2017-04-12T09:51:08.065Z,19.7
2017-04-12T09:52:16.085Z,19.6
2017-04-12T09:53:24.725Z,19.7
2017-04-12T09:54:32.261Z,19.7
2017-04-12T09:55:40.336Z,19.6
2017-04-12T09:56:48.423Z,19.7
2017-04-12T09:57:56.508Z,19.7
2017-04-12T09:59:04.987Z,19.6
2017-04-12T10:00:12.722Z,19.7
2017-04-12T10:01:20.975Z,19.6
2017-04-12T10:02:28.858Z,19.6
2017-04-12T10:03:36.952Z,19.7
2017-04-12T10:04:45.035Z,19.7
2017-04-12T10:05:53.120Z,19.7
2017-04-12T10:07:01.206Z,19.8
2017-04-12T10:08:09.295Z,19.7
2017-04-12T10:09:17.380Z,19.6
2017-04-12T10:10:25.463Z,19.7
2017-04-12T10:11:33.548Z,19.7
2017-04-12T10:12:41.643Z,19.7
2017-04-12T10:13:49.725Z,19.6
2017-04-12T10:14:57.807Z,19.7
2017-04-12T10:16:05.897Z,19.6
2017-04-12T10:17:14.005Z,19.7
2017-04-12T10:18:22.186Z,19.7
2017-04-12T10:19:30.154Z,19.7
2017-04-12T10:20:38.238Z,19.7
2017-04-12T10:21:46.325Z,19.7
2017-04-12T10:22:54.406Z,19.7
2017-04-12T10:24:02.497Z,19.7
2017-04-12T10:25:10.583Z,19.6
2017-04-12T10:26:18.660Z,19.7
2017-04-12T10:27:26.753Z,19.7
2017-04-12T10:28:34.834Z,19.6
2017-04-12T10:29:42.918Z,19.7
2017-04-12T10:30:51.004Z,19.6
2017-04-12T10:31:59.091Z,19.7
2017-04-12T10:33:07.179Z,19.7
2017-04-12T10:34:15.263Z,19.6
2017-04-12T10:35:23.349Z,19.6
2017-04-12T10:36:31.434Z,19.7
2017-04-12T10:37:39.517Z,19.7
2017-04-12T10:38:47.607Z,19.7
2017-04-12T10:39:55.696Z,19.7
2017-04-12T10:41:03.779Z,19.7
2017-04-12T10:42:11.868Z,19.6
2017-04-12T10:43:19.946Z,19.7
2017-04-12T10:44:28.033Z,19.7
2017-04-12T10:45:36.118Z,19.7
2017-04-12T10:46:44.197Z,19.7
2017-04-12T10:47:52.299Z,19.7
2017-04-12T10:49:00.376Z,19.7
2017-04-12T10:50:08.460Z,19.7
2017-04-12T10:51:16.558Z,19.7
2017-04-12T10:52:24.635Z,19.7
2017-04-12T10:53:32.717Z,19.7
2017-04-12T10:54:40.806Z,19.7
2017-04-12T10:55:48.894Z,19.7
2017-04-12T10:56:56.988Z,19.7
2017-04-12T10:58:05.071Z,19.8
2017-04-12T10:59:13.159Z,19.7
2017-04-12T11:00:21.244Z,19.7
2017-04-12T11:01:29.325Z,19.7
2017-04-12T11:02:37.631Z,19.7
2017-04-12T11:03:45.500Z,19.7
2017-04-12T11:04:53.581Z,19.8
2017-04-12T11:06:01.673Z,19.7
2017-04-12T11:07:09.763Z,19.8
2017-04-12T11:08:17.844Z,19.8
2017-04-12T11:09:25.931Z,19.8
2017-04-12T11:10:34.013Z,19.7
2017-04-12T11:11:42.107Z,19.7
2017-04-12T11:12:50.193Z,19.8
2017-04-12T11:13:58.277Z,19.8
2017-04-12T11:15:06.361Z,19.8
2017-04-12T11:16:14.461Z,19.8
2017-04-12T11:17:22.559Z,19.7
2017-04-12T11:18:30.626Z,19.7
2017-04-12T11:19:38.713Z,19.7
2017-04-12T11:20:46.799Z,19.7
2017-04-12T11:21:54.881Z,19.7
2017-04-12T11:23:02.974Z,19.7
2017-04-12T11:24:11.060Z,19.7
2017-04-12T11:25:19.149Z,19.8
2017-04-12T11:26:27.237Z,19.7
2017-04-12T11:27:35.327Z,19.8
2017-04-12T11:28:43.410Z,19.7
2017-04-12T11:29:51.493Z,19.8
2017-04-12T11:30:59.580Z,19.7
2017-04-12T11:32:07.665Z,19.8
2017-04-12T11:33:15.748Z,19.8
2017-04-12T11:34:23.831Z,19.9
2017-04-12T11:35:31.919Z,19.8
2017-04-12T11:36:40.006Z,19.9
2017-04-12T11:37:48.089Z,19.8
2017-04-12T11:38:56.180Z,19.8
2017-04-12T11:40:04.262Z,19.8
2017-04-12T11:41:12.345Z,19.8
2017-04-12T11:42:20.434Z,19.8
2017-04-12T11:43:28.520Z,19.8
2017-04-12T11:44:36.601Z,19.8
2017-04-12T11:45:44.686Z,19.9
2017-04-12T11:46:52.774Z,19.8
2017-04-12T11:48:00.858Z,19.8
2017-04-12T11:49:08.939Z,19.9
2017-04-12T11:50:17.030Z,19.9
2017-04-12T11:51:25.116Z,19.9
2017-04-12T11:52:33.196Z,19.9
2017-04-12T11:53:41.284Z,19.9
2017-04-12T11:54:49.374Z,19.9
2017-04-12T11:55:57.453Z,19.9
2017-04-12T11:57:05.537Z,19.9
2017-04-12T11:58:13.626Z,19.9
2017-04-12T11:59:21.710Z,19.9
2017-04-12T12:00:29.798Z,20.0
2017-04-12T12:01:37.884Z,19.9
2017-04-12T12:02:45.975Z,19.9
2017-04-12T12:03:54.055Z,19.9
2017-04-12T12:05:02.144Z,19.8
2017-04-12T12:06:10.230Z,19.9
2017-04-12T12:07:18.314Z,19.9
2017-04-12T12:08:26.397Z,19.9
2017-04-12T12:09:34.483Z,19.9
2017-04-12T12:10:42.579Z,19.9
2017-04-12T12:11:50.667Z,19.9
2017-04-12T12:12:58.746Z,19.9
2017-04-12T12:14:07.093Z,19.9
2017-04-12T12:15:14.926Z,19.9
2017-04-12T12:16:23.008Z,20.0
2017-04-12T12:17:31.096Z,20.0
2017-04-12T12:18:39.187Z,20.0
2017-04-12T12:19:47.271Z,20.0
2017-04-12T12:20:55.350Z,19.9
2017-04-12T12:22:03.438Z,20.0
2017-04-12T12:23:11.523Z,19.9
2017-04-12T12:24:19.602Z,19.9
2017-04-12T12:25:27.695Z,20.0
2017-04-12T12:26:35.780Z,20.0
2017-04-12T12:27:43.864Z,19.9
2017-04-12T12:28:51.954Z,19.9
2017-04-12T12:30:00.041Z,19.9
2017-04-12T12:31:08.126Z,19.9
2017-04-12T12:32:16.208Z,19.9
2017-04-12T12:33:24.298Z,19.9
2017-04-12T12:34:32.382Z,20.0
2017-04-12T12:35:40.466Z,20.0
2017-04-12T12:36:48.550Z,20.0
2017-04-12T12:37:56.638Z,20.0
2017-04-12T12:39:04.719Z,19.9
2017-04-12T12:40:12.802Z,20.0
2017-04-12T12:41:20.890Z,20.0
2017-04-12T12:42:28.976Z,20.0
2017-04-12T12:43:37.062Z,19.9
2017-04-12T12:44:45.143Z,20.0
2017-04-12T12:45:53.258Z,20.0
2017-04-12T12:47:01.325Z,20.0
2017-04-12T12:48:09.409Z,20.0
2017-04-12T12:49:17.494Z,20.0
2017-04-12T12:50:25.581Z,20.0
2017-04-12T12:51:33.663Z,19.9
2017-04-12T12:52:41.747Z,20.0
2017-04-12T12:53:49.842Z,20.0
2017-04-12T12:54:57.929Z,20.0
2017-04-12T12:56:06.021Z,19.9
2017-04-12T12:57:14.103Z,20.0
2017-04-12T12:58:22.193Z,20.0
2017-04-12T12:59:30.278Z,20.0
2017-04-12T13:00:38.359Z,20.0
2017-04-12T13:01:46.450Z,20.1
2017-04-12T13:02:54.574Z,20.0
2017-04-12T13:04:02.623Z,20.0
2017-04-12T13:05:10.713Z,20.0
2017-04-12T13:06:18.797Z,20.0
2017-04-12T13:07:26.882Z,20.0
2017-04-12T13:08:34.964Z,20.0
2017-04-12T13:09:43.054Z,20.0
2017-04-12T13:10:51.137Z,20.0
2017-04-12T13:11:59.218Z,20.0
2017-04-12T13:13:07.311Z,20.0
2017-04-12T13:14:15.391Z,20.0
2017-04-12T13:15:23.478Z,20.0
2017-04-12T13:16:31.568Z,20.1
2017-04-12T13:17:39.655Z,20.0
2017-04-12T13:18:47.742Z,20.1
2017-04-12T13:19:55.840Z,20.0
2017-04-12T13:21:04.023Z,20.0
2017-04-12T13:22:11.999Z,20.0
2017-04-12T13:23:20.085Z,20.0
2017-04-12T13:24:28.175Z,20.0
2017-04-12T13:25:36.261Z,20.0
2017-04-12T13:26:44.347Z,20.0
2017-04-12T13:27:52.429Z,20.0
2017-04-12T13:29:00.522Z,20.0
2017-04-12T13:30:08.614Z,20.0
2017-04-12T13:31:16.699Z,19.9
2017-04-12T13:32:24.792Z,20.0
2017-04-12T13:33:32.873Z,20.0
2017-04-12T13:34:40.969Z,20.0
2017-04-12T13:35:49.052Z,20.0
2017-04-12T13:36:57.140Z,20.0
2017-04-12T13:38:05.232Z,20.0
2017-04-12T13:39:13.313Z,20.1
2017-04-12T13:40:21.401Z,20.0
2017-04-12T13:41:29.489Z,20.0
2017-04-12T13:42:37.572Z,20.0
2017-04-12T13:43:45.655Z,20.0
2017-04-12T13:44:53.742Z,20.0
2017-04-12T13:46:01.834Z,20.0
2017-04-12T13:47:09.913Z,20.0
2017-04-12T13:48:17.996Z,20.0
2017-04-12T13:49:26.088Z,20.1
2017-04-12T13:50:34.168Z,20.1
2017-04-12T13:51:42.253Z,20.1
2017-04-12T13:52:50.339Z,20.0
2017-04-12T13:53:58.424Z,20.0
2017-04-12T13:55:06.506Z,20.1
2017-04-12T13:56:14.597Z,20.1
2017-04-12T13:57:22.680Z,20.1
2017-04-12T13:58:30.763Z,20.1
2017-04-12T13:59:38.846Z,20.0
2017-04-12T14:00:46.937Z,20.0
2017-04-12T14:01:55.026Z,20.1
2017-04-12T14:03:03.121Z,20.1
2017-04-12T14:04:11.194Z,20.0
2017-04-12T14:05:19.283Z,20.0
2017-04-12T14:06:27.360Z,20.1
2017-04-12T14:07:35.445Z,20.0
2017-04-12T14:08:43.534Z,20.0
2017-04-12T14:09:51.617Z,20.1
2017-04-12T14:10:59.698Z,20.1
2017-04-12T14:12:07.788Z,20.0
2017-04-12T14:13:15.874Z,20.0
2017-04-12T14:14:23.957Z,20.0
2017-04-12T14:15:32.044Z,20.0
2017-04-12T14:16:40.130Z,20.1
2017-04-12T14:17:48.217Z,20.0
2017-04-12T14:18:56.303Z,20.0
2017-04-12T14:20:04.389Z,20.0
2017-04-12T14:21:12.476Z,20.1
2017-04-12T14:22:20.560Z,20.1
2017-04-12T14:23:28.647Z,20.1
2017-04-12T14:24:36.733Z,20.1
2017-04-12T14:25:44.831Z,20.1
2017-04-12T14:26:52.909Z,20.0
2017-04-12T14:28:00.997Z,20.1
2017-04-12T14:29:09.083Z,20.1
2017-04-12T14:30:17.166Z,20.1
2017-04-12T14:31:25.257Z,20.1
2017-04-12T14:32:33.346Z,20.1
2017-04-12T14:33:41.438Z,20.1
2017-04-12T14:34:49.516Z,20.1
2017-04-12T14:35:57.609Z,20.1
2017-04-12T14:37:05.712Z,20.1
2017-04-12T14:38:13.784Z,20.1
2017-04-12T14:39:21.877Z,20.1
2017-04-12T14:40:29.963Z,20.1
2017-04-12T14:41:38.046Z,20.1
2017-04-12T14:42:46.135Z,20.0
2017-04-12T14:43:54.387Z,20.1
2017-04-12T14:45:02.309Z,20.1
2017-04-12T14:46:10.393Z,20.1
2017-04-12T14:47:18.475Z,20.0
2017-04-12T14:48:26.559Z,20.0
2017-04-12T14:49:34.641Z,20.1
2017-04-12T14:50:42.725Z,20.1
2017-04-12T14:51:50.813Z,20.1
2017-04-12T14:52:58.905Z,20.1
2017-04-12T14:54:06.983Z,20.1
2017-04-12T14:55:15.077Z,20.1
2017-04-12T14:56:23.163Z,20.1
2017-04-12T14:57:31.255Z,20.1
2017-04-12T14:58:39.328Z,20.1
2017-04-12T14:59:47.425Z,20.1
2017-04-12T15:00:55.513Z,20.1
2017-04-12T15:02:03.785Z,20.1
2017-04-12T15:03:11.689Z,20.1
2017-04-12T15:04:19.777Z,20.2
2017-04-12T15:05:27.863Z,20.1
2017-04-12T15:06:35.954Z,20.1